Rockport, Illinois
Current Conditions -  °F | °C
As of 4:35 AM on Saturday 22 Nov 2014 (Local Time) from KPPQ Reporting Station
Overcast Overcast  
Wind Chill: 39°   Ceiling: 2700
Heat Index: 44°   Visibility: 7mi
Dew Point: 40°   Wind: 9mph
Humidity: 88%   Direction: 170°S
Pressure: 30.09"   Gusts: NA
Location:  39.54°N, 91.01°W
Report Text: KPPQ 221035Z AUTO 17008KT 7SM OVC027 07/05 A3009 RMK AO2 T00650046 PWINO
Loading
Personal Weather Stations






























Interactive Weather Map New forecast layout! Learn more

10-Day Weather Forecast

Advertisements
Track Severe Weather on mobile